sensor_id;sensor_type;location;lat;lon;timestamp;temperature;humidity
8892;DHT22;4482;54.332;10.118;2023-08-06T00:00:27;16.20;99.90
8892;DHT22;4482;54.332;10.118;2023-08-06T00:02:55;16.20;99.90
8892;DHT22;4482;54.332;10.118;2023-08-06T00:05:21;16.10;99.90
8892;DHT22;4482;54.332;10.118;2023-08-06T00:07:48;16.10;99.90
8892;DHT22;4482;54.332;10.118;2023-08-06T00:10:15;16.10;99.90
8892;DHT22;4482;54.332;10.118;2023-08-06T00:12:42;16.10;99.90
8892;DHT22;4482;54.332;10.118;2023-08-06T00:15:09;16.10;99.90
8892;DHT22;4482;54.332;10.118;2023-08-06T00:17:36;16.10;99.90
8892;DHT22;4482;54.332;10.118;2023-08-06T00:20:04;16.10;99.90
8892;DHT22;4482;54.332;10.118;2023-08-06T00:22:31;16.10;99.90
8892;DHT22;4482;54.332;10.118;2023-08-06T00:24:58;16.10;99.90
8892;DHT22;4482;54.332;10.118;2023-08-06T00:27:25;16.00;99.90
8892;DHT22;4482;54.332;10.118;2023-08-06T00:29:51;16.10;99.90
8892;DHT22;4482;54.332;10.118;2023-08-06T00:32:18;16.00;99.90
8892;DHT22;4482;54.332;10.118;2023-08-06T00:34:45;16.00;99.90
8892;DHT22;4482;54.332;10.118;2023-08-06T00:37:13;16.00;99.90
8892;DHT22;4482;54.332;10.118;2023-08-06T00:39:39;16.00;99.90
8892;DHT22;4482;54.332;10.118;2023-08-06T00:42:06;16.00;99.90
8892;DHT22;4482;54.332;10.118;2023-08-06T00:44:33;16.00;99.90
8892;DHT22;4482;54.332;10.118;2023-08-06T00:46:59;16.00;99.90
8892;DHT22;4482;54.332;10.118;2023-08-06T00:49:26;16.00;99.90
8892;DHT22;4482;54.332;10.118;2023-08-06T00:51:53;15.90;99.90
8892;DHT22;4482;54.332;10.118;2023-08-06T00:54:21;16.00;99.90
8892;DHT22;4482;54.332;10.118;2023-08-06T00:56:48;15.90;99.90
8892;DHT22;4482;54.332;10.118;2023-08-06T00:59:15;15.90;99.90
8892;DHT22;4482;54.332;10.118;2023-08-06T01:01:42;15.90;99.90
8892;DHT22;4482;54.332;10.118;2023-08-06T01:04:09;15.90;99.90
8892;DHT22;4482;54.332;10.118;2023-08-06T01:06:38;15.80;99.90
8892;DHT22;4482;54.332;10.118;2023-08-06T01:09:06;15.80;99.90
8892;DHT22;4482;54.332;10.118;2023-08-06T01:11:42;15.80;99.90
8892;DHT22;4482;54.332;10.118;2023-08-06T01:14:15;15.80;99.90
8892;DHT22;4482;54.332;10.118;2023-08-06T01:16:45;15.80;99.90
8892;DHT22;4482;54.332;10.118;2023-08-06T01:19:15;15.80;99.90
8892;DHT22;4482;54.332;10.118;2023-08-06T01:21:43;15.80;99.90
8892;DHT22;4482;54.332;10.118;2023-08-06T01:24:10;15.80;99.90
8892;DHT22;4482;54.332;10.118;2023-08-06T01:26:37;15.80;99.90
8892;DHT22;4482;54.332;10.118;2023-08-06T01:29:06;15.70;99.90
8892;DHT22;4482;54.332;10.118;2023-08-06T01:31:36;15.70;99.90
8892;DHT22;4482;54.332;10.118;2023-08-06T01:34:04;15.80;99.90
8892;DHT22;4482;54.332;10.118;2023-08-06T01:36:31;15.80;99.90
8892;DHT22;4482;54.332;10.118;2023-08-06T01:39:00;15.80;99.90
8892;DHT22;4482;54.332;10.118;2023-08-06T01:41:26;15.80;99.90
8892;DHT22;4482;54.332;10.118;2023-08-06T01:43:53;15.70;99.90
8892;DHT22;4482;54.332;10.118;2023-08-06T01:46:20;15.80;99.90
8892;DHT22;4482;54.332;10.118;2023-08-06T01:48:46;15.80;99.90
8892;DHT22;4482;54.332;10.118;2023-08-06T01:51:13;15.70;99.90
8892;DHT22;4482;54.332;10.118;2023-08-06T01:53:39;15.70;99.90
8892;DHT22;4482;54.332;10.118;2023-08-06T01:56:07;15.70;99.90
8892;DHT22;4482;54.332;10.118;2023-08-06T01:58:34;15.70;99.90
8892;DHT22;4482;54.332;10.118;2023-08-06T02:01:01;15.70;99.90
8892;DHT22;4482;54.332;10.118;2023-08-06T02:03:27;15.70;99.90
8892;DHT22;4482;54.332;10.118;2023-08-06T02:05:54;15.70;99.90
8892;DHT22;4482;54.332;10.118;2023-08-06T02:08:21;15.70;99.90
8892;DHT22;4482;54.332;10.118;2023-08-06T02:10:48;15.70;99.90
8892;DHT22;4482;54.332;10.118;2023-08-06T02:13:16;15.70;99.90
8892;DHT22;4482;54.332;10.118;2023-08-06T02:15:43;15.70;99.90
8892;DHT22;4482;54.332;10.118;2023-08-06T02:18:10;15.70;99.90
8892;DHT22;4482;54.332;10.118;2023-08-06T02:20:36;15.70;99.90
8892;DHT22;4482;54.332;10.118;2023-08-06T02:23:03;15.70;99.90
8892;DHT22;4482;54.332;10.118;2023-08-06T02:25:30;15.70;99.90
8892;DHT22;4482;54.332;10.118;2023-08-06T02:27:56;15.70;99.90
8892;DHT22;4482;54.332;10.118;2023-08-06T02:30:24;15.70;99.90
8892;DHT22;4482;54.332;10.118;2023-08-06T02:32:51;15.80;99.90
8892;DHT22;4482;54.332;10.118;2023-08-06T02:35:17;15.80;99.90
8892;DHT22;4482;54.332;10.118;2023-08-06T02:37:44;15.80;99.90
8892;DHT22;4482;54.332;10.118;2023-08-06T02:40:14;15.80;99.90
8892;DHT22;4482;54.332;10.118;2023-08-06T02:42:41;15.80;99.90
8892;DHT22;4482;54.332;10.118;2023-08-06T02:45:08;15.80;99.90
8892;DHT22;4482;54.332;10.118;2023-08-06T02:47:36;15.80;99.90
8892;DHT22;4482;54.332;10.118;2023-08-06T02:50:03;15.80;99.90
8892;DHT22;4482;54.332;10.118;2023-08-06T02:52:29;15.80;99.90
8892;DHT22;4482;54.332;10.118;2023-08-06T02:54:56;15.80;99.90
8892;DHT22;4482;54.332;10.118;2023-08-06T02:57:25;15.80;99.90
8892;DHT22;4482;54.332;10.118;2023-08-06T02:59:51;15.80;99.90
8892;DHT22;4482;54.332;10.118;2023-08-06T03:02:18;15.70;99.90
8892;DHT22;4482;54.332;10.118;2023-08-06T03:04:46;15.70;99.90
8892;DHT22;4482;54.332;10.118;2023-08-06T03:07:13;15.70;99.90
8892;DHT22;4482;54.332;10.118;2023-08-06T03:09:39;15.70;99.90
8892;DHT22;4482;54.332;10.118;2023-08-06T03:12:06;15.70;99.90
8892;DHT22;4482;54.332;10.118;2023-08-06T03:14:33;15.70;99.90
8892;DHT22;4482;54.332;10.118;2023-08-06T03:16:59;15.70;99.90
8892;DHT22;4482;54.332;10.118;2023-08-06T03:19:26;15.70;99.90
8892;DHT22;4482;54.332;10.118;2023-08-06T03:21:54;15.60;99.90
8892;DHT22;4482;54.332;10.118;2023-08-06T03:24:21;15.60;99.90
8892;DHT22;4482;54.332;10.118;2023-08-06T03:26:47;15.70;99.90
8892;DHT22;4482;54.332;10.118;2023-08-06T03:29:14;15.60;99.90
8892;DHT22;4482;54.332;10.118;2023-08-06T03:31:41;15.60;99.90
8892;DHT22;4482;54.332;10.118;2023-08-06T03:34:07;15.60;99.90
8892;DHT22;4482;54.332;10.118;2023-08-06T03:36:34;15.60;99.90
8892;DHT22;4482;54.332;10.118;2023-08-06T03:39:02;15.50;99.90
8892;DHT22;4482;54.332;10.118;2023-08-06T03:41:29;15.50;99.90
8892;DHT22;4482;54.332;10.118;2023-08-06T03:43:55;15.50;99.90
8892;DHT22;4482;54.332;10.118;2023-08-06T03:46:22;15.50;99.90
8892;DHT22;4482;54.332;10.118;2023-08-06T03:48:49;15.50;99.90
8892;DHT22;4482;54.332;10.118;2023-08-06T03:51:15;15.40;99.90
8892;DHT22;4482;54.332;10.118;2023-08-06T03:53:42;15.40;99.90
8892;DHT22;4482;54.332;10.118;2023-08-06T03:56:10;15.40;99.90
8892;DHT22;4482;54.332;10.118;2023-08-06T03:58:36;15.40;99.90
8892;DHT22;4482;54.332;10.118;2023-08-06T04:01:03;15.40;99.90
8892;DHT22;4482;54.332;10.118;2023-08-06T04:03:30;15.30;99.90
8892;DHT22;4482;54.332;10.118;2023-08-06T04:05:56;15.30;99.90
8892;DHT22;4482;54.332;10.118;2023-08-06T04:08:23;15.30;99.90
8892;DHT22;4482;54.332;10.118;2023-08-06T04:10:50;15.30;99.90
8892;DHT22;4482;54.332;10.118;2023-08-06T04:13:18;15.30;99.90
8892;DHT22;4482;54.332;10.118;2023-08-06T04:15:45;15.30;99.90
8892;DHT22;4482;54.332;10.118;2023-08-06T04:18:12;15.40;99.90
8892;DHT22;4482;54.332;10.118;2023-08-06T04:20:42;15.40;99.90
8892;DHT22;4482;54.332;10.118;2023-08-06T04:23:08;15.40;99.90
8892;DHT22;4482;54.332;10.118;2023-08-06T04:25:35;15.50;99.90
8892;DHT22;4482;54.332;10.118;2023-08-06T04:28:02;15.50;99.90
8892;DHT22;4482;54.332;10.118;2023-08-06T04:30:29;15.50;99.90
8892;DHT22;4482;54.332;10.118;2023-08-06T04:32:56;15.50;99.90
8892;DHT22;4482;54.332;10.118;2023-08-06T04:35:23;15.60;99.90
8892;DHT22;4482;54.332;10.118;2023-08-06T04:37:49;15.60;99.90
8892;DHT22;4482;54.332;10.118;2023-08-06T04:40:16;15.60;99.90
8892;DHT22;4482;54.332;10.118;2023-08-06T04:42:43;15.60;99.90
8892;DHT22;4482;54.332;10.118;2023-08-06T04:45:09;15.70;99.90
8892;DHT22;4482;54.332;10.118;2023-08-06T04:47:37;15.60;99.90
8892;DHT22;4482;54.332;10.118;2023-08-06T04:50:04;15.60;99.90
8892;DHT22;4482;54.332;10.118;2023-08-06T04:52:31;15.50;99.90
8892;DHT22;4482;54.332;10.118;2023-08-06T04:54:58;15.40;99.90
8892;DHT22;4482;54.332;10.118;2023-08-06T04:57:24;15.40;99.90
8892;DHT22;4482;54.332;10.118;2023-08-06T04:59:51;15.40;99.90
8892;DHT22;4482;54.332;10.118;2023-08-06T05:02:18;15.40;99.90
8892;DHT22;4482;54.332;10.118;2023-08-06T05:04:46;15.30;99.90
8892;DHT22;4482;54.332;10.118;2023-08-06T05:07:12;15.30;99.90
8892;DHT22;4482;54.332;10.118;2023-08-06T05:09:39;15.30;99.90
8892;DHT22;4482;54.332;10.118;2023-08-06T05:12:06;15.30;99.90
8892;DHT22;4482;54.332;10.118;2023-08-06T05:14:32;15.30;99.90
8892;DHT22;4482;54.332;10.118;2023-08-06T05:16:59;15.40;99.90
8892;DHT22;4482;54.332;10.118;2023-08-06T05:19:27;15.40;99.90
8892;DHT22;4482;54.332;10.118;2023-08-06T05:21:55;15.40;99.90
8892;DHT22;4482;54.332;10.118;2023-08-06T05:24:22;15.50;99.90
8892;DHT22;4482;54.332;10.118;2023-08-06T05:26:48;15.60;99.90
8892;DHT22;4482;54.332;10.118;2023-08-06T05:29:16;15.60;99.90
8892;DHT22;4482;54.332;10.118;2023-08-06T05:31:42;15.70;99.90
8892;DHT22;4482;54.332;10.118;2023-08-06T05:34:09;15.80;99.90
8892;DHT22;4482;54.332;10.118;2023-08-06T05:36:36;15.80;99.90
8892;DHT22;4482;54.332;10.118;2023-08-06T05:39:04;15.80;99.90
8892;DHT22;4482;54.332;10.118;2023-08-06T05:41:30;15.90;99.90
8892;DHT22;4482;54.332;10.118;2023-08-06T05:43:57;15.90;99.90
8892;DHT22;4482;54.332;10.118;2023-08-06T05:46:23;16.00;99.90
8892;DHT22;4482;54.332;10.118;2023-08-06T05:48:50;16.00;99.90
8892;DHT22;4482;54.332;10.118;2023-08-06T05:51:17;16.10;99.90
8892;DHT22;4482;54.332;10.118;2023-08-06T05:53:44;16.20;99.90
8892;DHT22;4482;54.332;10.118;2023-08-06T05:56:13;16.20;99.90
8892;DHT22;4482;54.332;10.118;2023-08-06T05:58:40;16.30;99.90
8892;DHT22;4482;54.332;10.118;2023-08-06T06:01:07;16.30;99.90
8892;DHT22;4482;54.332;10.118;2023-08-06T06:03:34;16.40;99.90
8892;DHT22;4482;54.332;10.118;2023-08-06T06:06:00;16.40;99.90
8892;DHT22;4482;54.332;10.118;2023-08-06T06:08:27;16.50;99.90
8892;DHT22;4482;54.332;10.118;2023-08-06T06:10:54;16.60;99.90
8892;DHT22;4482;54.332;10.118;2023-08-06T06:13:22;16.60;99.90
8892;DHT22;4482;54.332;10.118;2023-08-06T06:15:48;16.70;99.90
8892;DHT22;4482;54.332;10.118;2023-08-06T06:18:15;16.70;99.90
8892;DHT22;4482;54.332;10.118;2023-08-06T06:20:41;16.70;99.90
8892;DHT22;4482;54.332;10.118;2023-08-06T06:23:08;16.80;99.90
8892;DHT22;4482;54.332;10.118;2023-08-06T06:25:35;16.80;99.90
8892;DHT22;4482;54.332;10.118;2023-08-06T06:28:01;16.80;99.90
8892;DHT22;4482;54.332;10.118;2023-08-06T06:30:29;16.80;99.90
8892;DHT22;4482;54.332;10.118;2023-08-06T06:32:56;16.80;99.90
8892;DHT22;4482;54.332;10.118;2023-08-06T06:35:23;16.80;99.90
8892;DHT22;4482;54.332;10.118;2023-08-06T06:37:49;16.80;99.90
8892;DHT22;4482;54.332;10.118;2023-08-06T06:40:16;16.90;99.90
8892;DHT22;4482;54.332;10.118;2023-08-06T06:42:42;16.80;99.90
8892;DHT22;4482;54.332;10.118;2023-08-06T06:45:09;16.90;99.90
8892;DHT22;4482;54.332;10.118;2023-08-06T06:47:37;16.90;99.90
8892;DHT22;4482;54.332;10.118;2023-08-06T06:50:04;16.90;99.90
8892;DHT22;4482;54.332;10.118;2023-08-06T06:52:31;16.90;99.90
8892;DHT22;4482;54.332;10.118;2023-08-06T06:54:58;17.00;99.90
8892;DHT22;4482;54.332;10.118;2023-08-06T06:57:24;17.00;99.90
8892;DHT22;4482;54.332;10.118;2023-08-06T06:59:51;17.10;99.90
8892;DHT22;4482;54.332;10.118;2023-08-06T07:02:17;17.10;99.90
8892;DHT22;4482;54.332;10.118;2023-08-06T07:04:45;17.20;99.90
8892;DHT22;4482;54.332;10.118;2023-08-06T07:07:12;17.20;99.90
8892;DHT22;4482;54.332;10.118;2023-08-06T07:09:39;17.30;99.90
8892;DHT22;4482;54.332;10.118;2023-08-06T07:12:05;17.30;99.90
8892;DHT22;4482;54.332;10.118;2023-08-06T07:14:32;17.30;99.90
8892;DHT22;4482;54.332;10.118;2023-08-06T07:16:59;17.30;99.90
8892;DHT22;4482;54.332;10.118;2023-08-06T07:19:25;17.30;99.90
8892;DHT22;4482;54.332;10.118;2023-08-06T07:21:53;17.30;99.90
8892;DHT22;4482;54.332;10.118;2023-08-06T07:24:21;17.20;99.90
8892;DHT22;4482;54.332;10.118;2023-08-06T07:26:47;17.20;99.90
8892;DHT22;4482;54.332;10.118;2023-08-06T07:29:14;17.20;99.90
8892;DHT22;4482;54.332;10.118;2023-08-06T07:31:45;17.20;99.90
8892;DHT22;4482;54.332;10.118;2023-08-06T07:34:11;17.20;99.90
8892;DHT22;4482;54.332;10.118;2023-08-06T07:36:38;17.30;99.90
8892;DHT22;4482;54.332;10.118;2023-08-06T07:39:06;17.30;99.90
8892;DHT22;4482;54.332;10.118;2023-08-06T07:41:33;17.40;99.90
8892;DHT22;4482;54.332;10.118;2023-08-06T07:44:01;17.40;99.90
8892;DHT22;4482;54.332;10.118;2023-08-06T07:46:28;17.50;99.90
8892;DHT22;4482;54.332;10.118;2023-08-06T07:48:54;17.70;99.90
8892;DHT22;4482;54.332;10.118;2023-08-06T07:51:21;17.80;99.90
8892;DHT22;4482;54.332;10.118;2023-08-06T07:53:47;17.80;99.90
8892;DHT22;4482;54.332;10.118;2023-08-06T07:56:15;17.90;99.90
8892;DHT22;4482;54.332;10.118;2023-08-06T07:58:42;17.90;99.90
8892;DHT22;4482;54.332;10.118;2023-08-06T08:01:09;17.90;99.90
8892;DHT22;4482;54.332;10.118;2023-08-06T08:03:35;17.90;99.90
8892;DHT22;4482;54.332;10.118;2023-08-06T08:06:02;17.80;99.90
8892;DHT22;4482;54.332;10.118;2023-08-06T08:08:28;17.90;99.90
8892;DHT22;4482;54.332;10.118;2023-08-06T08:10:55;17.90;99.90
8892;DHT22;4482;54.332;10.118;2023-08-06T08:13:25;17.80;99.90
8892;DHT22;4482;54.332;10.118;2023-08-06T08:15:56;17.70;99.90
8892;DHT22;4482;54.332;10.118;2023-08-06T08:18:22;17.60;99.90
8892;DHT22;4482;54.332;10.118;2023-08-06T08:20:49;17.50;99.90
8892;DHT22;4482;54.332;10.118;2023-08-06T08:23:15;17.60;99.90
8892;DHT22;4482;54.332;10.118;2023-08-06T08:25:42;17.60;99.90
8892;DHT22;4482;54.332;10.118;2023-08-06T08:28:09;17.60;99.90
8892;DHT22;4482;54.332;10.118;2023-08-06T08:30:37;17.60;99.90
8892;DHT22;4482;54.332;10.118;2023-08-06T08:33:03;17.50;99.90
8892;DHT22;4482;54.332;10.118;2023-08-06T08:35:30;17.60;99.90
8892;DHT22;4482;54.332;10.118;2023-08-06T08:37:57;17.70;99.90
8892;DHT22;4482;54.332;10.118;2023-08-06T08:40:23;17.80;99.90
8892;DHT22;4482;54.332;10.118;2023-08-06T08:42:54;17.80;99.90
8892;DHT22;4482;54.332;10.118;2023-08-06T08:45:21;17.90;99.90
8892;DHT22;4482;54.332;10.118;2023-08-06T08:47:50;18.10;99.90
8892;DHT22;4482;54.332;10.118;2023-08-06T08:50:16;18.30;99.90
8892;DHT22;4482;54.332;10.118;2023-08-06T08:52:45;18.50;99.90
8892;DHT22;4482;54.332;10.118;2023-08-06T08:55:14;18.80;99.90
8892;DHT22;4482;54.332;10.118;2023-08-06T08:57:41;18.90;99.90
8892;DHT22;4482;54.332;10.118;2023-08-06T09:00:08;19.10;99.90
8892;DHT22;4482;54.332;10.118;2023-08-06T09:02:34;19.40;99.90
8892;DHT22;4482;54.332;10.118;2023-08-06T09:05:04;19.40;99.90
8892;DHT22;4482;54.332;10.118;2023-08-06T09:07:32;19.30;99.90
8892;DHT22;4482;54.332;10.118;2023-08-06T09:10:01;19.30;99.90
8892;DHT22;4482;54.332;10.118;2023-08-06T09:12:29;19.20;99.90
8892;DHT22;4482;54.332;10.118;2023-08-06T09:14:55;19.10;99.90
8892;DHT22;4482;54.332;10.118;2023-08-06T09:17:22;19.10;99.90
8892;DHT22;4482;54.332;10.118;2023-08-06T09:19:49;19.10;99.90
8892;DHT22;4482;54.332;10.118;2023-08-06T09:22:17;19.30;99.90
8892;DHT22;4482;54.332;10.118;2023-08-06T09:24:43;19.20;99.90
8892;DHT22;4482;54.332;10.118;2023-08-06T09:27:10;19.20;99.90
8892;DHT22;4482;54.332;10.118;2023-08-06T09:29:39;19.10;99.90
8892;DHT22;4482;54.332;10.118;2023-08-06T09:32:06;19.20;99.90
8892;DHT22;4482;54.332;10.118;2023-08-06T09:34:33;19.30;99.90
8892;DHT22;4482;54.332;10.118;2023-08-06T09:36:59;19.70;99.90
8892;DHT22;4482;54.332;10.118;2023-08-06T09:39:28;19.70;99.90
8892;DHT22;4482;54.332;10.118;2023-08-06T09:41:55;19.70;99.90
8892;DHT22;4482;54.332;10.118;2023-08-06T09:44:24;19.70;99.90
8892;DHT22;4482;54.332;10.118;2023-08-06T09:46:51;19.80;99.90
8892;DHT22;4482;54.332;10.118;2023-08-06T09:49:18;19.60;99.90
8892;DHT22;4482;54.332;10.118;2023-08-06T09:51:45;19.50;99.90
8892;DHT22;4482;54.332;10.118;2023-08-06T09:54:16;19.50;99.90
8892;DHT22;4482;54.332;10.118;2023-08-06T09:56:44;19.40;99.90
8892;DHT22;4482;54.332;10.118;2023-08-06T09:59:11;19.30;99.90
8892;DHT22;4482;54.332;10.118;2023-08-06T10:01:38;19.30;99.90
8892;DHT22;4482;54.332;10.118;2023-08-06T10:04:05;19.40;99.90
8892;DHT22;4482;54.332;10.118;2023-08-06T10:06:33;19.40;99.90
8892;DHT22;4482;54.332;10.118;2023-08-06T10:09:00;19.30;99.90
8892;DHT22;4482;54.332;10.118;2023-08-06T10:11:27;19.20;99.90
8892;DHT22;4482;54.332;10.118;2023-08-06T10:13:57;19.10;99.90
8892;DHT22;4482;54.332;10.118;2023-08-06T10:16:24;19.00;99.90
8892;DHT22;4482;54.332;10.118;2023-08-06T10:18:51;19.20;99.90
8892;DHT22;4482;54.332;10.118;2023-08-06T10:21:19;19.20;99.90
8892;DHT22;4482;54.332;10.118;2023-08-06T10:23:49;19.30;99.90
8892;DHT22;4482;54.332;10.118;2023-08-06T10:26:19;19.20;99.90
8892;DHT22;4482;54.332;10.118;2023-08-06T10:28:46;19.30;99.90
8892;DHT22;4482;54.332;10.118;2023-08-06T10:31:14;19.40;99.90
8892;DHT22;4482;54.332;10.118;2023-08-06T10:33:41;19.50;99.90
8892;DHT22;4482;54.332;10.118;2023-08-06T10:36:08;19.50;99.90
8892;DHT22;4482;54.332;10.118;2023-08-06T10:38:36;19.40;99.90
8892;DHT22;4482;54.332;10.118;2023-08-06T10:41:09;19.70;99.90
8892;DHT22;4482;54.332;10.118;2023-08-06T10:43:41;20.00;99.90
8892;DHT22;4482;54.332;10.118;2023-08-06T10:46:10;20.10;99.90
8892;DHT22;4482;54.332;10.118;2023-08-06T10:48:39;20.30;99.90
8892;DHT22;4482;54.332;10.118;2023-08-06T10:51:07;20.30;99.90
8892;DHT22;4482;54.332;10.118;2023-08-06T10:53:34;20.30;99.90
8892;DHT22;4482;54.332;10.118;2023-08-06T10:56:00;20.40;99.90
8892;DHT22;4482;54.332;10.118;2023-08-06T10:58:30;20.60;99.90
8892;DHT22;4482;54.332;10.118;2023-08-06T11:00:57;20.50;99.90
8892;DHT22;4482;54.332;10.118;2023-08-06T11:03:24;20.40;99.90
8892;DHT22;4482;54.332;10.118;2023-08-06T11:05:52;20.10;99.90
8892;DHT22;4482;54.332;10.118;2023-08-06T11:08:23;20.20;99.90
8892;DHT22;4482;54.332;10.118;2023-08-06T11:10:49;20.10;99.90
8892;DHT22;4482;54.332;10.118;2023-08-06T11:13:16;20.20;99.90
8892;DHT22;4482;54.332;10.118;2023-08-06T11:15:43;20.30;99.90
8892;DHT22;4482;54.332;10.118;2023-08-06T11:18:09;20.40;99.90
8892;DHT22;4482;54.332;10.118;2023-08-06T11:20:36;20.50;99.90
8892;DHT22;4482;54.332;10.118;2023-08-06T11:23:04;20.50;99.90
8892;DHT22;4482;54.332;10.118;2023-08-06T11:25:31;20.70;99.90
8892;DHT22;4482;54.332;10.118;2023-08-06T11:27:57;21.00;99.90
8892;DHT22;4482;54.332;10.118;2023-08-06T11:30:24;21.30;99.90
8892;DHT22;4482;54.332;10.118;2023-08-06T11:32:51;21.70;99.90
8892;DHT22;4482;54.332;10.118;2023-08-06T11:35:17;21.40;99.90
8892;DHT22;4482;54.332;10.118;2023-08-06T11:37:44;21.20;99.90
8892;DHT22;4482;54.332;10.118;2023-08-06T11:40:13;20.80;99.90
8892;DHT22;4482;54.332;10.118;2023-08-06T11:42:40;20.70;99.90
8892;DHT22;4482;54.332;10.118;2023-08-06T11:45:08;20.70;99.90
8892;DHT22;4482;54.332;10.118;2023-08-06T11:47:37;20.40;99.90
8892;DHT22;4482;54.332;10.118;2023-08-06T11:50:04;20.30;99.90
8892;DHT22;4482;54.332;10.118;2023-08-06T11:52:31;20.40;99.90
8892;DHT22;4482;54.332;10.118;2023-08-06T11:55:01;20.50;99.90
8892;DHT22;4482;54.332;10.118;2023-08-06T11:57:33;20.60;99.90
8892;DHT22;4482;54.332;10.118;2023-08-06T12:00:01;20.20;99.90
8892;DHT22;4482;54.332;10.118;2023-08-06T12:02:30;20.10;99.90
8892;DHT22;4482;54.332;10.118;2023-08-06T12:05:00;20.20;99.90
8892;DHT22;4482;54.332;10.118;2023-08-06T12:07:28;20.20;99.90
8892;DHT22;4482;54.332;10.118;2023-08-06T12:09:54;20.30;99.90
8892;DHT22;4482;54.332;10.118;2023-08-06T12:12:21;20.20;99.90
8892;DHT22;4482;54.332;10.118;2023-08-06T12:14:49;20.10;99.90
8892;DHT22;4482;54.332;10.118;2023-08-06T12:17:15;20.00;99.90
8892;DHT22;4482;54.332;10.118;2023-08-06T12:19:44;20.00;99.90
8892;DHT22;4482;54.332;10.118;2023-08-06T12:22:10;19.90;99.90
8892;DHT22;4482;54.332;10.118;2023-08-06T12:24:38;19.90;99.90
8892;DHT22;4482;54.332;10.118;2023-08-06T12:27:05;19.90;99.90
8892;DHT22;4482;54.332;10.118;2023-08-06T12:29:32;19.90;99.90
8892;DHT22;4482;54.332;10.118;2023-08-06T12:32:00;19.90;99.90
8892;DHT22;4482;54.332;10.118;2023-08-06T12:34:26;19.90;99.90
8892;DHT22;4482;54.332;10.118;2023-08-06T12:36:53;20.00;99.90
8892;DHT22;4482;54.332;10.118;2023-08-06T12:39:19;20.10;99.90
8892;DHT22;4482;54.332;10.118;2023-08-06T12:41:46;20.30;99.90
8892;DHT22;4482;54.332;10.118;2023-08-06T12:44:13;20.30;99.90
8892;DHT22;4482;54.332;10.118;2023-08-06T12:46:39;20.30;99.90
8892;DHT22;4482;54.332;10.118;2023-08-06T12:49:07;20.30;99.90
8892;DHT22;4482;54.332;10.118;2023-08-06T12:51:34;20.30;99.90
8892;DHT22;4482;54.332;10.118;2023-08-06T12:54:01;20.10;99.90
8892;DHT22;4482;54.332;10.118;2023-08-06T12:56:27;20.00;99.90
8892;DHT22;4482;54.332;10.118;2023-08-06T12:58:54;19.90;99.90
8892;DHT22;4482;54.332;10.118;2023-08-06T13:01:21;19.90;99.90
8892;DHT22;4482;54.332;10.118;2023-08-06T13:03:47;19.90;99.90
8892;DHT22;4482;54.332;10.118;2023-08-06T13:06:15;19.90;99.90
8892;DHT22;4482;54.332;10.118;2023-08-06T13:08:42;20.00;99.90
8892;DHT22;4482;54.332;10.118;2023-08-06T13:11:09;20.00;99.90
8892;DHT22;4482;54.332;10.118;2023-08-06T13:13:36;20.10;99.90
8892;DHT22;4482;54.332;10.118;2023-08-06T13:16:02;19.90;99.90
8892;DHT22;4482;54.332;10.118;2023-08-06T13:18:29;19.80;99.90
8892;DHT22;4482;54.332;10.118;2023-08-06T13:20:56;19.90;99.90
8892;DHT22;4482;54.332;10.118;2023-08-06T13:23:24;19.80;99.90
8892;DHT22;4482;54.332;10.118;2023-08-06T13:25:51;19.90;99.90
8892;DHT22;4482;54.332;10.118;2023-08-06T13:28:17;19.90;99.90
8892;DHT22;4482;54.332;10.118;2023-08-06T13:30:45;20.00;99.90
8892;DHT22;4482;54.332;10.118;2023-08-06T13:33:11;20.00;99.90
8892;DHT22;4482;54.332;10.118;2023-08-06T13:35:38;20.10;99.90
8892;DHT22;4482;54.332;10.118;2023-08-06T13:38:04;20.10;99.90
8892;DHT22;4482;54.332;10.118;2023-08-06T13:40:33;20.10;99.90
8892;DHT22;4482;54.332;10.118;2023-08-06T13:43:00;20.00;99.90
8892;DHT22;4482;54.332;10.118;2023-08-06T13:45:27;19.80;99.90
8892;DHT22;4482;54.332;10.118;2023-08-06T13:47:54;19.80;99.90
8892;DHT22;4482;54.332;10.118;2023-08-06T13:50:21;19.80;99.90
8892;DHT22;4482;54.332;10.118;2023-08-06T13:52:50;19.70;99.90
8892;DHT22;4482;54.332;10.118;2023-08-06T13:55:18;19.70;99.90
8892;DHT22;4482;54.332;10.118;2023-08-06T13:57:46;19.70;99.90
8892;DHT22;4482;54.332;10.118;2023-08-06T14:00:13;19.60;99.90
8892;DHT22;4482;54.332;10.118;2023-08-06T14:02:39;19.70;99.90
8892;DHT22;4482;54.332;10.118;2023-08-06T14:05:06;19.60;99.90
8892;DHT22;4482;54.332;10.118;2023-08-06T14:07:33;19.70;99.90
8892;DHT22;4482;54.332;10.118;2023-08-06T14:10:00;19.70;99.90
8892;DHT22;4482;54.332;10.118;2023-08-06T14:12:26;19.60;99.90
8892;DHT22;4482;54.332;10.118;2023-08-06T14:14:54;19.60;99.90
8892;DHT22;4482;54.332;10.118;2023-08-06T14:17:21;19.60;99.90
8892;DHT22;4482;54.332;10.118;2023-08-06T14:19:47;19.50;99.90
8892;DHT22;4482;54.332;10.118;2023-08-06T14:22:14;19.40;99.90
8892;DHT22;4482;54.332;10.118;2023-08-06T14:24:41;19.40;99.90
8892;DHT22;4482;54.332;10.118;2023-08-06T14:27:07;19.30;99.90
8892;DHT22;4482;54.332;10.118;2023-08-06T14:29:34;19.40;99.90
8892;DHT22;4482;54.332;10.118;2023-08-06T14:32:02;19.50;99.90
8892;DHT22;4482;54.332;10.118;2023-08-06T14:34:29;19.40;99.90
8892;DHT22;4482;54.332;10.118;2023-08-06T14:36:55;19.40;99.90
8892;DHT22;4482;54.332;10.118;2023-08-06T14:39:22;19.50;99.90
8892;DHT22;4482;54.332;10.118;2023-08-06T14:41:48;19.50;99.90
8892;DHT22;4482;54.332;10.118;2023-08-06T14:44:15;19.50;99.90
8892;DHT22;4482;54.332;10.118;2023-08-06T14:46:42;19.50;99.90
8892;DHT22;4482;54.332;10.118;2023-08-06T14:49:10;19.40;99.90
8892;DHT22;4482;54.332;10.118;2023-08-06T14:51:36;19.30;99.90
8892;DHT22;4482;54.332;10.118;2023-08-06T14:54:05;19.30;99.90
8892;DHT22;4482;54.332;10.118;2023-08-06T14:56:32;19.30;99.90
8892;DHT22;4482;54.332;10.118;2023-08-06T14:58:58;19.30;99.90
8892;DHT22;4482;54.332;10.118;2023-08-06T15:01:25;19.30;99.90
8892;DHT22;4482;54.332;10.118;2023-08-06T15:03:52;19.30;99.90
8892;DHT22;4482;54.332;10.118;2023-08-06T15:06:20;19.30;99.90
8892;DHT22;4482;54.332;10.118;2023-08-06T15:08:46;19.20;99.90
8892;DHT22;4482;54.332;10.118;2023-08-06T15:11:13;19.10;99.90
8892;DHT22;4482;54.332;10.118;2023-08-06T15:13:40;19.20;99.90
8892;DHT22;4482;54.332;10.118;2023-08-06T15:16:07;19.20;99.90
8892;DHT22;4482;54.332;10.118;2023-08-06T15:18:33;19.30;99.90
8892;DHT22;4482;54.332;10.118;2023-08-06T15:21:00;19.30;99.90
8892;DHT22;4482;54.332;10.118;2023-08-06T15:23:28;19.30;99.90
8892;DHT22;4482;54.332;10.118;2023-08-06T15:25:55;19.40;99.90
8892;DHT22;4482;54.332;10.118;2023-08-06T15:28:21;19.50;99.90
8892;DHT22;4482;54.332;10.118;2023-08-06T15:30:49;19.60;99.90
8892;DHT22;4482;54.332;10.118;2023-08-06T15:33:16;19.60;99.90
8892;DHT22;4482;54.332;10.118;2023-08-06T15:35:43;19.60;99.90
8892;DHT22;4482;54.332;10.118;2023-08-06T15:38:10;19.60;99.90
8892;DHT22;4482;54.332;10.118;2023-08-06T15:40:38;19.50;99.90
8892;DHT22;4482;54.332;10.118;2023-08-06T15:43:04;19.50;99.90